| time (UTC) | Packet |
| 20260505014222 | KO5MO-4>APRS,TCPIP*,qAC,T2PERTH:=3333.69N/11210.39W_337.5/004g004t075r000p...P...h40b100785N1 - Room Humidity: 20.35% Room Temp:83.95 F |
| 20260505014722 | KO5MO-4>APRS,TCPIP*,qAC,T2PERTH:=3333.69N/11210.39W_247.5/006g004t075r000p...P...h40b100795N1 - Room Humidity: 20.9% Room Temp:83.88 F |
| 20260505015222 | KO5MO-4>APRS,TCPIP*,qAC,T2PERTH:=3333.69N/11210.39W_247.5/008g004t074r000p...P...h40b100795N1 - Room Humidity: 20.61% Room Temp:84 F |
| 20260505015722 | KO5MO-4>APRS,TCPIP*,qAC,T2PERTH:=3333.69N/11210.39W_247.5/004g006t074r000p...P...h40b100815N1 - Room Humidity: 20.87% Room Temp:84.21 F |
| 20260505020222 | KO5MO-4>APRS,TCPIP*,qAC,T2PERTH:=3333.69N/11210.39W_247.5/005g004t074r000p...P...h40b100805N1 - Room Humidity: 19.95% Room Temp:84.36 F |
| 20260505020722 | KO5MO-4>APRS,TCPIP*,qAC,T2PERTH:=3333.69N/11210.39W_247.5/007g007t074r000p...P...h40b100785N1 - Room Humidity: 20.19% Room Temp:84.31 F |
| 20260505021722 | KO5MO-4>APRS,TCPIP*,qAC,T2PERTH:=3333.69N/11210.39W_247.5/005g005t074r000p...P...h40b100795N1 - Room Humidity: 20.58% Room Temp:84.49 F |
| 20260505030222 | KO5MO-4>APRS,TCPIP*,qAC,T2PERTH:=3333.69N/11210.39W_292.5/003g003t073r000p...P...h40b100815N1 - Room Humidity: 20.08% Room Temp:84.72 F |
| 20260505034722 | KO5MO-4>APRS,TCPIP*,qAC,T2PERTH:=3333.69N/11210.39W_202.5/002g004t073r000p...P...h39b100895N1 - Room Humidity: 20.67% Room Temp:85.08 F |
| 20260505040222 | KO5MO-4>APRS,TCPIP*,qAC,T2PERTH:=3333.69N/11210.39W_247.5/003g003t073r000p...P...h39b100905N1 - Room Humidity: 20.21% Room Temp:85.05 F |
| 20260505040722 | KO5MO-4>APRS,TCPIP*,qAC,T2PERTH:=3333.69N/11210.39W_247.5/002g003t073r000p...P...h39b100905N1 - Room Humidity: 20.54% Room Temp:85.13 F |
| 20260505041722 | KO5MO-4>APRS,TCPIP*,qAC,T2PERTH:=3333.69N/11210.39W_292.5/003g003t073r000p...P...h39b100905N1 - Room Humidity: 20.42% Room Temp:85.43 F |
| 20260505052440 | KO5MO-4>APRS,TCPIP*,qAC,T2ERFURT:=3333.69N/11210.39W_247.5/003g002t072r000p...P...h42b100885N1 - Room Humidity: 19.74% Room Temp:85.49 F |
| 20260505052940 | KO5MO-4>APRS,TCPIP*,qAC,T2ERFURT:=3333.69N/11210.39W_247.5/003g004t072r000p...P...h42b100885N1 - Room Humidity: 19.91% Room Temp:85.42 F |
| 20260505053440 | KO5MO-4>APRS,TCPIP*,qAC,T2ERFURT:=3333.69N/11210.39W_202.5/004g004t072r000p...P...h42b100875N1 - Room Humidity: 19.84% Room Temp:85.43 F |
| 20260505055440 | KO5MO-4>APRS,TCPIP*,qAC,T2ERFURT:=3333.69N/11210.39W_292.5/005g007t072r000p...P...h42b100845N1 - Room Humidity: 19.45% Room Temp:85.38 F |
| 20260505061441 | KO5MO-4>APRS,TCPIP*,qAC,T2ERFURT:=3333.69N/11210.39W_247.5/003g002t072r000p...P...h42b100875N1 - Room Humidity: 19.5% Room Temp:85.41 F |
| 20260505064441 | KO5MO-4>APRS,TCPIP*,qAC,T2ERFURT:=3333.69N/11210.39W_247.5/005g004t072r000p...P...h40b100895N1 - Room Humidity: 18.92% Room Temp:85.49 F |
| 20260505065940 | KO5MO-4>APRS,TCPIP*,qAC,T2ERFURT:=3333.69N/11210.39W_247.5/004g003t072r000p...P...h39b100895N1 - Room Humidity: 19.45% Room Temp:85.35 F |
| 20260505070441 | KO5MO-4>APRS,TCPIP*,qAC,T2ERFURT:=3333.69N/11210.39W_202.5/007g006t072r000p...P...h39b100895N1 - Room Humidity: 19.01% Room Temp:85.44 F |
| 20260505071941 | KO5MO-4>APRS,TCPIP*,qAC,T2ERFURT:=3333.69N/11210.39W_292.5/006g007t071r000p...P...h39b100895N1 - Room Humidity: 19.5% Room Temp:85.32 F |